Time;durP1;ratioP1;P1;durP2;ratioP2;P2;SDS_P1;SDS_P2;PMS_P1;PMS_P2;Temp;Humidity;BMP_temperature;BMP_pressure;BME280_temperature;BME280_humidity;BME280_pressure;Samples;Min_cycle;Max_cycle;Signal;HPM_P1;HPM_P2
2023/10/10 00:01:46;;;;;;;0.00;0.00;;;11.00;100.00;;;;;;4970651;28;20050;-74
2023/10/10 00:04:13;;;;;;;0.00;0.00;;;11.00;100.00;;;;;;4989221;28;20053;-74
2023/10/10 00:06:40;;;;;;;0.00;0.00;;;10.90;100.00;;;;;;4972075;28;20050;-74
2023/10/10 00:09:11;;;;;;;0.00;0.00;;;11.00;100.00;;;;;;4988960;28;20553;-75
2023/10/10 00:11:40;;;;;;;0.00;0.00;;;11.00;100.00;;;;;;4988326;28;20130;-75
2023/10/10 00:14:29;;;;;;;0.00;0.00;;;11.00;100.00;;;;;;4993474;28;20066;-75
2023/10/10 00:16:55;;;;;;;4.57;1.33;;;10.90;100.00;;;;;;4995397;28;20054;-74
2023/10/10 00:19:37;;;;;;;54.60;15.60;;;10.90;100.00;;;;;;4991992;28;20495;-74
2023/10/10 00:22:06;;;;;;;55.03;15.93;;;10.90;100.00;;;;;;4989860;28;20501;-75
2023/10/10 00:24:32;;;;;;;55.50;15.88;;;11.00;100.00;;;;;;4969527;28;20473;-75
2023/10/10 00:27:12;;;;;;;60.00;16.13;;;11.00;100.00;;;;;;4985046;28;20137;-74
2023/10/10 00:29:44;;;;;;;59.00;16.50;;;10.90;100.00;;;;;;4969892;28;20041;-75
2023/10/10 00:32:17;;;;;;;65.40;15.27;;;11.00;100.00;;;;;;4975204;28;20093;-75
2023/10/10 00:34:48;;;;;;;61.30;16.13;;;11.00;100.00;;;;;;4989955;28;20053;-74
2023/10/10 00:37:20;;;;;;;70.05;16.45;;;11.00;100.00;;;;;;4982281;28;20153;-74
2023/10/10 00:39:54;;;;;;;47.42;14.88;;;11.00;100.00;;;;;;4971910;28;20535;-74
2023/10/10 00:42:37;;;;;;;76.60;17.10;;;11.00;100.00;;;;;;4979721;28;20058;-74
2023/10/10 00:45:09;;;;;;;66.22;17.33;;;11.00;100.00;;;;;;4984123;28;20055;-75
2023/10/10 00:47:47;;;;;;;66.05;15.30;;;11.00;100.00;;;;;;4990585;28;20129;-75
2023/10/10 00:50:16;;;;;;;95.30;16.27;;;11.00;100.00;;;;;;4989229;28;20129;-75
2023/10/10 00:52:52;;;;;;;85.53;16.35;;;11.00;100.00;;;;;;4983011;28;20053;-75
2023/10/10 00:55:24;;;;;;;61.65;15.85;;;11.00;100.00;;;;;;4980070;28;20053;-75
2023/10/10 00:57:55;;;;;;;78.60;16.35;;;10.90;100.00;;;;;;4973215;28;20125;-75
2023/10/10 01:00:25;;;;;;;100.88;16.10;;;10.90;100.00;;;;;;4981885;28;20066;-75
2023/10/10 01:02:52;;;;;;;82.80;15.50;;;10.90;100.00;;;;;;4981993;28;20580;-75
2023/10/10 01:05:24;;;;;;;84.95;16.88;;;10.90;100.00;;;;;;4985065;28;20054;-74
2023/10/10 01:07:53;;;;;;;89.50;17.13;;;10.90;100.00;;;;;;4983681;28;20101;-74
2023/10/10 01:10:20;;;;;;;83.78;16.13;;;10.90;100.00;;;;;;4980896;28;20046;-74
2023/10/10 01:12:48;;;;;;;79.95;17.00;;;10.90;100.00;;;;;;4981256;28;20576;-75
2023/10/10 01:15:16;;;;;;;;;;;;;;;;;;;;;
2023/10/10 01:17:43;;;;;;;79.97;16.33;;;10.90;100.00;;;;;;4987364;28;20400;-75
2023/10/10 01:22:48;;;;;;;57.33;15.57;;;10.90;100.00;;;;;;4982807;28;20053;-75
2023/10/10 01:28:13;;;;;;;62.00;14.20;;;10.90;100.00;;;;;;4987609;28;20427;-75
2023/10/10 01:30:54;;;;;;;57.85;14.02;;;10.90;100.00;;;;;;4986228;28;20054;-75
2023/10/10 01:33:36;;;;;;;61.05;15.05;;;10.90;100.00;;;;;;4985234;28;20482;-75
2023/10/10 01:36:20;;;;;;;68.53;15.10;;;10.90;100.00;;;;;;4970970;28;20372;-75
2023/10/10 01:38:56;;;;;;;73.82;15.40;;;10.90;100.00;;;;;;4981214;28;20134;-75
2023/10/10 01:41:38;;;;;;;77.85;14.90;;;10.90;100.00;;;;;;4989731;28;20140;-75
2023/10/10 01:44:11;;;;;;;78.90;14.68;;;10.90;100.00;;;;;;4975842;28;20148;-75
2023/10/10 01:46:42;;;;;;;53.63;13.85;;;10.90;100.00;;;;;;4984596;28;20061;-75
2023/10/10 01:49:13;;;;;;;87.53;16.42;;;10.90;100.00;;;;;;4970189;28;20109;-75
2023/10/10 01:51:42;;;;;;;65.22;14.48;;;10.90;100.00;;;;;;4981273;28;20061;-75
2023/10/10 01:54:20;;;;;;;69.57;15.23;;;10.90;100.00;;;;;;4980234;28;20046;-74
2023/10/10 01:56:48;;;;;;;55.25;14.48;;;10.90;100.00;;;;;;4971835;28;20054;-75
2023/10/10 01:59:25;;;;;;;61.15;14.65;;;10.90;100.00;;;;;;4981535;28;20046;-74
2023/10/10 02:01:54;;;;;;;53.78;13.65;;;10.90;100.00;;;;;;4988680;28;20575;-75
2023/10/10 02:04:21;;;;;;;51.65;14.10;;;10.90;100.00;;;;;;4984745;28;20495;-74
2023/10/10 02:06:56;;;;;;;57.47;14.18;;;10.90;100.00;;;;;;4991290;28;20499;-74
2023/10/10 02:11:53;;;;;;;59.78;13.73;;;10.90;100.00;;;;;;4988098;28;20053;-74
2023/10/10 02:14:25;;;;;;;52.70;13.60;;;10.90;100.00;;;;;;4974364;28;20557;-75
2023/10/10 02:16:55;;;;;;;60.40;13.98;;;10.90;100.00;;;;;;4983551;28;20046;-75
2023/10/10 02:19:36;;;;;;;62.45;14.10;;;10.90;100.00;;;;;;4990776;28;20121;-75
2023/10/10 02:22:19;;;;;;;58.60;14.27;;;10.90;100.00;;;;;;4967403;28;20054;-74
2023/10/10 02:24:49;;;;;;;58.08;13.65;;;10.90;100.00;;;;;;4990586;28;20699;-74
2023/10/10 02:27:22;;;;;;;62.70;13.27;;;10.90;100.00;;;;;;4986049;28;20050;-74
2023/10/10 02:29:49;;;;;;;46.28;12.50;;;10.90;100.00;;;;;;4985087;28;20130;-74
2023/10/10 02:32:20;;;;;;;56.47;13.80;;;10.90;100.00;;;;;;4986630;28;20495;-74
2023/10/10 02:35:04;;;;;;;53.65;13.00;;;10.90;100.00;;;;;;4987185;28;20042;-75
2023/10/10 02:37:45;;;;;;;55.28;13.93;;;10.90;100.00;;;;;;4971925;28;20046;-75
2023/10/10 02:40:15;;;;;;;64.32;13.95;;;10.90;100.00;;;;;;4985831;28;20055;-75
2023/10/10 02:42:50;;;;;;;53.78;13.23;;;10.80;100.00;;;;;;4986364;28;20042;-75
2023/10/10 02:45:27;;;;;;;54.43;12.73;;;10.80;100.00;;;;;;4988206;28;20112;-75
2023/10/10 02:47:54;;;;;;;43.35;13.98;;;10.80;100.00;;;;;;4985137;28;20046;-74
2023/10/10 02:50:40;;;;;;;54.65;14.02;;;10.80;100.00;;;;;;4980469;28;20057;-75
2023/10/10 02:53:08;;;;;;;52.33;13.10;;;10.80;100.00;;;;;;4968920;28;20042;-75
2023/10/10 02:55:40;;;;;;;59.00;13.27;;;10.80;100.00;;;;;;4974626;28;20066;-75
2023/10/10 02:58:20;;;;;;;55.13;13.80;;;10.80;100.00;;;;;;4988642;28;20046;-74
2023/10/10 03:00:52;;;;;;;68.50;15.30;;;10.80;100.00;;;;;;4989995;28;20058;-74
2023/10/10 03:03:18;;;;;;;49.13;12.52;;;10.90;100.00;;;;;;4981923;28;20506;-74
2023/10/10 03:05:54;;;;;;;56.25;13.75;;;10.90;100.00;;;;;;4974117;28;20104;-74
2023/10/10 03:08:35;;;;;;;56.63;14.07;;;10.90;100.00;;;;;;4988923;28;20053;-75
2023/10/10 03:11:14;;;;;;;55.03;14.40;;;10.90;100.00;;;;;;4986925;28;20050;-74
2023/10/10 03:13:48;;;;;;;49.97;13.30;;;10.90;100.00;;;;;;4987605;28;20051;-76
2023/10/10 03:17:03;;;;;;;64.43;14.30;;;10.90;100.00;;;;;;4987669;28;20042;-75
2023/10/10 03:21:43;;;;;;;52.90;14.02;;;10.90;100.00;;;;;;4987177;28;20046;-75
2023/10/10 03:29:37;;;;;;;47.83;12.43;;;10.90;100.00;;;;;;4982374;28;20117;-74
2023/10/10 03:35:20;;;;;;;59.50;13.68;;;11.00;100.00;;;;;;4967384;28;20051;-74
2023/10/10 03:38:04;;;;;;;54.92;14.63;;;11.00;100.00;;;;;;4970569;28;20050;-75
2023/10/10 03:41:24;;;;;;;56.53;14.05;;;11.00;100.00;;;;;;4979293;28;20051;-75
2023/10/10 05:25:37;;;;;;;70.85;13.93;;;11.00;100.00;;;;;;4985580;28;20473;-77
2023/10/10 05:28:04;;;;;;;80.53;17.42;;;11.10;100.00;;;;;;4980856;28;20054;-76
2023/10/10 05:30:42;;;;;;;74.43;15.38;;;11.10;100.00;;;;;;4974701;28;20061;-73
2023/10/10 05:33:09;;;;;;;82.03;14.60;;;11.10;100.00;;;;;;4981411;28;20054;-73
2023/10/10 05:35:40;;;;;;;78.57;15.63;;;11.10;100.00;;;;;;4982175;28;20511;-73
2023/10/10 05:38:08;;;;;;;72.97;14.82;;;11.10;100.00;;;;;;4967289;28;20154;-73
2023/10/10 05:40:38;;;;;;;77.88;15.05;;;11.10;100.00;;;;;;4984028;28;20479;-73
2023/10/10 05:43:09;;;;;;;68.28;15.85;;;11.10;100.00;;;;;;4985509;28;20399;-73
2023/10/10 05:45:36;;;;;;;77.72;14.95;;;11.10;100.00;;;;;;4985120;28;20101;-72
2023/10/10 05:48:05;;;;;;;78.28;15.90;;;11.10;100.00;;;;;;4985462;28;20486;-73
2023/10/10 05:50:35;;;;;;;70.60;14.63;;;11.10;100.00;;;;;;4983050;28;20483;-73
2023/10/10 05:53:06;;;;;;;70.43;14.30;;;11.10;100.00;;;;;;4983062;28;20054;-73
2023/10/10 05:55:34;;;;;;;86.88;15.25;;;11.10;100.00;;;;;;4982079;28;20737;-73
2023/10/10 05:58:05;;;;;;;64.30;15.00;;;11.10;100.00;;;;;;4981119;28;20073;-74
2023/10/10 06:00:41;;;;;;;79.40;16.17;;;11.10;100.00;;;;;;4980674;28;20052;-73
2023/10/10 06:03:10;;;;;;;81.13;15.95;;;11.20;100.00;;;;;;4959590;28;20058;-73
2023/10/10 06:05:44;;;;;;;77.88;15.40;;;11.20;100.00;;;;;;4981384;28;20133;-73
2023/10/10 06:08:15;;;;;;;85.60;16.30;;;11.20;100.00;;;;;;4990626;28;20050;-73
2023/10/10 06:10:43;;;;;;;87.05;15.82;;;11.20;100.00;;;;;;4984749;28;20054;-74
2023/10/10 06:13:11;;;;;;;88.40;17.45;;;11.20;100.00;;;;;;4982960;28;20050;-74
2023/10/10 06:15:38;;;;;;;77.85;15.68;;;11.20;100.00;;;;;;4967284;28;20038;-74
2023/10/10 06:18:08;;;;;;;72.32;15.38;;;11.30;100.00;;;;;;4983499;28;20050;-74
2023/10/10 06:20:41;;;;;;;87.75;17.33;;;11.30;100.00;;;;;;4982074;28;20046;-74
2023/10/10 06:23:28;;;;;;;77.35;16.00;;;11.30;100.00;;;;;;4981442;28;20504;-73
2023/10/10 06:25:58;;;;;;;83.18;16.52;;;11.30;100.00;;;;;;4981650;28;20101;-73
2023/10/10 06:28:34;;;;;;;100.63;17.15;;;11.30;100.00;;;;;;4967304;28;20053;-73
2023/10/10 06:31:02;;;;;;;77.43;15.85;;;11.30;100.00;;;;;;4978414;28;20050;-73
2023/10/10 06:33:30;;;;;;;84.95;17.23;;;11.30;100.00;;;;;;4966506;28;20190;-73
2023/10/10 06:41:37;;;;;;;91.82;19.45;;;11.40;100.00;;;;;;4984360;28;20054;-73
2023/10/10 06:44:05;;;;;;;94.90;20.60;;;11.40;100.00;;;;;;4967005;28;20711;-73
2023/10/10 06:46:32;;;;;;;87.18;18.75;;;11.40;100.00;;;;;;4967362;28;20121;-74
2023/10/10 06:49:04;;;;;;;71.40;17.13;;;11.50;100.00;;;;;;4966956;28;20065;-74
2023/10/10 06:51:33;;;;;;;100.38;19.10;;;11.50;100.00;;;;;;4975281;28;20133;-73
2023/10/10 06:54:03;;;;;;;82.13;17.20;;;11.50;100.00;;;;;;4976069;28;20090;-72
2023/10/10 06:56:45;;;;;;;80.25;18.85;;;11.50;100.00;;;;;;4983253;28;20050;-73
2023/10/10 06:59:20;;;;;;;146.32;24.35;;;11.60;100.00;;;;;;4986355;28;20046;-76
2023/10/10 07:01:48;;;;;;;;;;;11.60;100.00;;;;;;4975216;28;20693;-79
2023/10/10 07:04:16;;;;;;;46.95;13.55;;;11.70;100.00;;;;;;4985332;28;19925;-74
2023/10/10 07:06:47;;;;;;;56.95;14.30;;;11.70;100.00;;;;;;4974774;28;20053;-74
2023/10/10 07:09:14;;;;;;;55.53;14.02;;;11.80;100.00;;;;;;4966248;28;20565;-74
2023/10/10 07:11:42;;;;;;;57.55;14.82;;;11.80;100.00;;;;;;4983762;28;20137;-74
2023/10/10 07:14:11;;;;;;;48.35;13.35;;;11.90;100.00;;;;;;4984061;28;20137;-74
2023/10/10 07:16:42;;;;;;;48.00;13.50;;;12.00;100.00;;;;;;4966804;28;20046;-75
2023/10/10 07:19:21;;;;;;;61.67;14.65;;;12.00;100.00;;;;;;4990291;28;20053;-76
2023/10/10 07:21:51;;;;;;;62.70;13.02;;;12.10;100.00;;;;;;4972803;28;20047;-75
2023/10/10 07:24:18;;;;;;;61.67;13.07;;;12.10;100.00;;;;;;4988392;28;20053;-74
2023/10/10 07:26:59;;;;;;;67.70;15.60;;;12.20;100.00;;;;;;4982957;28;20506;-74
2023/10/10 07:29:26;;;;;;;65.47;13.93;;;12.20;100.00;;;;;;4987258;28;20218;-72
2023/10/10 07:32:16;;;;;;;59.03;13.25;;;12.30;100.00;;;;;;4979466;28;20053;-76
2023/10/10 07:34:49;;;;;;;67.57;14.63;;;12.30;100.00;;;;;;4984077;28;20043;-74
2023/10/10 07:37:22;;;;;;;61.53;13.70;;;12.30;100.00;;;;;;4982643;28;20109;-73
2023/10/10 07:39:55;;;;;;;55.40;12.98;;;12.40;100.00;;;;;;4977700;28;20078;-74
2023/10/10 07:42:30;;;;;;;55.97;13.20;;;12.40;100.00;;;;;;4966033;28;20051;-74
2023/10/10 07:44:58;;;;;;;54.60;11.63;;;12.50;100.00;;;;;;4965096;28;20133;-75
2023/10/10 07:47:26;;;;;;;56.72;13.90;;;12.60;100.00;;;;;;4954763;28;20051;-74
2023/10/10 07:49:53;;;;;;;45.33;12.82;;;12.70;100.00;;;;;;4981080;28;20038;-75
2023/10/10 07:52:20;;;;;;;60.13;15.43;;;12.80;100.00;;;;;;4969151;28;20779;-74
2023/10/10 07:54:51;;;;;;;53.53;13.63;;;12.80;100.00;;;;;;4985425;28;20157;-74
2023/10/10 07:57:26;;;;;;;55.90;14.70;;;12.80;100.00;;;;;;4986338;28;20052;-74
2023/10/10 08:00:17;;;;;;;48.10;14.07;;;12.80;100.00;;;;;;4985073;28;20039;-74
2023/10/10 08:02:49;;;;;;;46.53;13.55;;;12.80;100.00;;;;;;4964675;28;20133;-71
2023/10/10 08:05:19;;;;;;;48.80;14.63;;;12.90;100.00;;;;;;4986050;28;20175;-70
2023/10/10 08:07:47;;;;;;;49.38;13.25;;;12.90;100.00;;;;;;4984584;28;20054;-70
2023/10/10 08:10:29;;;;;;;43.10;12.35;;;13.00;100.00;;;;;;4979831;28;20565;-71
2023/10/10 08:12:57;;;;;;;41.88;12.10;;;13.00;100.00;;;;;;4982873;28;20039;-71
2023/10/10 08:15:28;;;;;;;39.72;11.13;;;13.00;100.00;;;;;;4978554;28;20043;-77
2023/10/10 08:17:58;;;;;;;37.70;11.32;;;13.00;100.00;;;;;;4980791;28;20523;-76
2023/10/10 08:20:35;;;;;;;41.30;11.40;;;13.10;100.00;;;;;;4980959;28;20046;-76
2023/10/10 08:23:06;;;;;;;36.45;10.93;;;13.20;100.00;;;;;;4968110;28;20046;-76
2023/10/10 08:25:33;;;;;;;46.35;11.73;;;13.20;100.00;;;;;;4981813;28;20137;-76
2023/10/10 08:28:00;;;;;;;44.42;11.70;;;13.30;100.00;;;;;;4976966;28;20411;-76
2023/10/10 08:30:27;;;;;;;36.38;11.18;;;13.40;100.00;;;;;;4980734;28;20149;-76
2023/10/10 08:32:59;;;;;;;25.33;9.98;;;13.50;100.00;;;;;;4966594;28;20570;-76
2023/10/10 08:35:29;;;;;;;24.83;8.90;;;13.60;100.00;;;;;;4983029;28;20474;-75
2023/10/10 08:37:57;;;;;;;26.98;8.55;;;13.60;100.00;;;;;;4989084;28;20049;-75
2023/10/10 08:40:33;;;;;;;21.75;7.72;;;13.70;100.00;;;;;;4979708;28;20042;-75
2023/10/10 08:43:02;;;;;;;21.45;7.53;;;13.70;100.00;;;;;;4967039;28;20073;-75
2023/10/10 08:45:39;;;;;;;21.60;7.30;;;13.70;100.00;;;;;;4985419;28;20050;-75
2023/10/10 08:48:15;;;;;;;24.85;7.53;;;13.70;100.00;;;;;;4983424;28;20054;-74
2023/10/10 08:50:46;;;;;;;22.98;8.25;;;13.80;100.00;;;;;;4986083;28;20132;-74
2023/10/10 08:53:14;;;;;;;21.30;6.88;;;13.90;100.00;;;;;;4970474;28;20567;-75
2023/10/10 08:55:41;;;;;;;23.20;7.53;;;13.90;100.00;;;;;;4981061;28;20050;-74
2023/10/10 08:58:10;;;;;;;24.58;8.82;;;13.80;100.00;;;;;;4984104;28;20054;-75
2023/10/10 09:00:37;;;;;;;17.95;7.03;;;13.90;100.00;;;;;;4981712;28;20054;-76
2023/10/10 09:03:07;;;;;;;18.38;6.70;;;14.00;100.00;;;;;;4984308;28;20069;-76
2023/10/10 09:05:36;;;;;;;15.80;6.95;;;14.10;100.00;;;;;;4985459;28;20046;-75
2023/10/10 09:08:14;;;;;;;10.73;4.72;;;14.40;100.00;;;;;;4986765;28;20050;-75
2023/10/10 09:10:47;;;;;;;14.95;6.85;;;14.40;100.00;;;;;;4986657;28;20058;-76
2023/10/10 09:13:16;;;;;;;13.68;6.22;;;14.50;100.00;;;;;;4981804;28;20415;-76
2023/10/10 09:15:56;;;;;;;13.73;6.05;;;14.60;100.00;;;;;;4982341;28;20554;-75
2023/10/10 09:18:25;;;;;;;13.32;6.13;;;14.70;98.80;;;;;;4979420;28;20138;-75
2023/10/10 09:21:10;;;;;;;11.45;4.97;;;14.70;99.10;;;;;;4980702;28;20054;-76
2023/10/10 09:23:42;;;;;;;12.60;5.28;;;14.70;98.10;;;;;;4976061;28;20093;-76
2023/10/10 09:28:58;;;;;;;11.73;5.35;;;14.70;98.80;;;;;;4985676;28;20062;-75
2023/10/10 09:31:31;;;;;;;;;;;14.80;99.80;;;;;;4969139;28;20058;-75
2023/10/10 09:34:03;;;;;;;12.02;4.53;;;14.90;99.30;;;;;;4979830;28;20704;-76
2023/10/10 09:36:37;;;;;;;7.97;4.55;;;15.00;96.50;;;;;;4975474;28;20057;-75
2023/10/10 09:39:09;;;;;;;10.90;4.60;;;15.00;94.80;;;;;;4980669;28;20059;-76
2023/10/10 09:41:37;;;;;;;8.10;4.75;;;14.90;95.80;;;;;;4984272;28;20133;-76
2023/10/10 10:09:08;;;;;;;5.35;3.00;;;15.10;97.00;;;;;;4979445;28;20681;-75
2023/10/10 10:12:04;;;;;;;5.43;2.78;;;15.20;96.10;;;;;;4984583;28;20062;-76
2023/10/10 10:14:53;;;;;;;4.55;2.88;;;15.20;94.40;;;;;;4982263;28;20129;-75
2023/10/10 10:17:49;;;;;;;3.95;2.47;;;15.30;96.10;;;;;;4984828;28;20042;-76
2023/10/10 10:20:44;;;;;;;4.30;2.57;;;15.40;95.80;;;;;;4982849;28;20225;-76
2023/10/10 10:23:18;;;;;;;4.18;2.35;;;15.50;95.00;;;;;;4978282;28;20435;-75
2023/10/10 10:26:04;;;;;;;4.15;2.15;;;15.50;94.50;;;;;;4984975;28;20108;-75
2023/10/10 10:28:35;;;;;;;4.72;1.92;;;15.50;93.90;;;;;;4975814;28;20592;-75
2023/10/10 10:31:27;;;;;;;5.97;1.80;;;15.60;93.40;;;;;;4965458;28;20145;-75
2023/10/10 10:34:10;;;;;;;2.55;1.77;;;15.60;94.30;;;;;;4979938;28;20060;-75
2023/10/10 10:36:43;;;;;;;2.63;2.00;;;15.70;95.10;;;;;;4972215;28;20600;-75
2023/10/10 10:39:20;;;;;;;4.00;1.85;;;15.90;92.40;;;;;;4980659;28;20082;-75
2023/10/10 10:41:53;;;;;;;2.30;1.58;;;15.90;92.10;;;;;;4984134;28;20133;-75
2023/10/10 10:44:28;;;;;;;2.75;1.55;;;15.80;92.80;;;;;;4983907;28;20145;-75
2023/10/10 10:46:57;;;;;;;2.42;1.50;;;15.70;92.90;;;;;;4979738;28;20385;-76
2023/10/10 10:49:28;;;;;;;2.60;1.55;;;15.60;92.20;;;;;;4978550;28;20098;-75
2023/10/10 10:52:17;;;;;;;7.07;1.75;;;15.50;93.50;;;;;;4980958;28;20133;-75
2023/10/10 10:54:49;;;;;;;2.63;1.60;;;15.50;92.30;;;;;;4976512;28;20089;-76
2023/10/10 10:57:27;;;;;;;6.38;1.67;;;15.50;94.00;;;;;;4966667;28;20131;-76
2023/10/10 11:00:27;;;;;;;4.00;2.00;;;15.60;93.90;;;;;;4981879;28;20518;-75
2023/10/10 11:02:59;;;;;;;24.23;2.90;;;15.70;93.10;;;;;;4960292;28;20046;-75
2023/10/10 11:05:28;;;;;;;3.13;1.88;;;15.90;93.70;;;;;;4982300;28;20054;-75
2023/10/10 11:08:10;;;;;;;10.68;2.25;;;16.10;94.60;;;;;;4978531;28;20086;-75
2023/10/10 11:10:38;;;;;;;3.70;2.22;;;16.30;94.90;;;;;;4978229;28;20549;-75
2023/10/10 11:13:07;;;;;;;3.80;1.48;;;16.50;92.20;;;;;;4983548;28;20137;-75
2023/10/10 11:15:38;;;;;;;2.33;2.00;;;16.50;90.80;;;;;;4982552;28;20049;-76
2023/10/10 11:18:08;;;;;;;2.45;1.70;;;16.40;90.30;;;;;;4979440;28;20047;-76
2023/10/10 11:21:14;;;;;;;3.47;1.60;;;16.50;90.90;;;;;;4983151;28;20463;-76
2023/10/10 11:23:41;;;;;;;1.80;1.30;;;16.50;90.10;;;;;;4983391;28;20161;-76
2023/10/10 11:26:08;;;;;;;3.08;1.40;;;16.60;89.60;;;;;;4983055;28;20157;-76
2023/10/10 11:28:47;;;;;;;2.53;1.30;;;16.60;89.60;;;;;;4987234;28;20132;-76
2023/10/10 11:31:23;;;;;;;1.58;1.10;;;16.80;90.60;;;;;;4987494;28;20062;-76
2023/10/10 11:34:09;;;;;;;1.52;1.08;;;16.90;89.80;;;;;;4982653;28;20050;-76
2023/10/10 11:36:39;;;;;;;2.08;1.42;;;17.10;88.10;;;;;;4982651;28;20054;-76
2023/10/10 11:39:31;;;;;;;1.88;1.20;;;17.30;89.00;;;;;;4976782;28;20057;-76
2023/10/10 11:42:03;;;;;;;1.50;0.95;;;17.60;87.30;;;;;;4980906;28;20527;-76
2023/10/10 11:44:33;;;;;;;2.72;1.15;;;17.80;86.70;;;;;;4980437;28;20053;-76
2023/10/10 11:47:07;;;;;;;1.45;1.20;;;17.90;86.80;;;;;;4978955;28;20058;-76
2023/10/10 11:49:34;;;;;;;0.93;0.88;;;18.40;85.40;;;;;;4977027;28;20053;-76
2023/10/10 11:52:01;;;;;;;1.25;1.10;;;18.90;85.00;;;;;;4980455;28;20156;-76
2023/10/10 11:54:29;;;;;;;1.00;0.80;;;19.40;82.60;;;;;;4968251;28;20439;-76
2023/10/10 11:56:56;;;;;;;4.97;0.80;;;19.70;78.30;;;;;;4986859;28;20049;-76
2023/10/10 11:59:23;;;;;;;6.60;1.00;;;19.90;77.80;;;;;;4986132;28;20476;-76
2023/10/10 12:01:51;;;;;;;1.73;1.00;;;20.20;80.90;;;;;;4986169;28;20101;-76
2023/10/10 12:04:31;;;;;;;2.05;0.70;;;20.90;78.10;;;;;;4983372;28;20077;-76
2023/10/10 12:07:00;;;;;;;1.67;1.05;;;21.90;72.40;;;;;;4980416;28;20857;-77
2023/10/10 12:09:32;;;;;;;1.45;0.88;;;22.20;71.20;;;;;;4982302;28;20054;-76
2023/10/10 12:12:02;;;;;;;1.13;0.73;;;22.00;71.00;;;;;;4969146;28;20427;-76
2023/10/10 12:14:30;;;;;;;3.83;1.10;;;21.70;68.20;;;;;;4979704;28;20044;-76
2023/10/10 12:16:58;;;;;;;1.77;0.90;;;20.90;69.80;;;;;;4986406;28;20119;-76
2023/10/10 12:19:29;;;;;;;1.05;0.70;;;20.40;75.20;;;;;;4960105;28;20101;-76
2023/10/10 12:22:01;;;;;;;1.55;0.95;;;20.20;73.60;;;;;;4980823;28;20077;-76
2023/10/10 12:24:28;;;;;;;1.90;0.80;;;20.00;74.40;;;;;;4978780;28;20050;-76
2023/10/10 12:26:55;;;;;;;1.70;0.80;;;19.60;74.10;;;;;;4987473;28;20050;-77
2023/10/10 12:29:22;;;;;;;3.80;0.85;;;19.20;75.30;;;;;;4987047;28;20066;-76
2023/10/10 12:31:55;;;;;;;4.25;0.80;;;18.90;76.40;;;;;;4987484;28;20049;-76
2023/10/10 12:34:23;;;;;;;5.72;0.85;;;18.70;77.40;;;;;;4983156;28;20046;-76
2023/10/10 12:36:59;;;;;;;4.38;1.00;;;18.50;78.20;;;;;;4984413;28;20455;-76
2023/10/10 12:39:29;;;;;;;1.65;0.93;;;18.40;80.10;;;;;;4981062;28;20073;-77
2023/10/10 12:41:56;;;;;;;1.23;0.93;;;18.50;79.80;;;;;;4983920;28;20081;-76
2023/10/10 12:44:24;;;;;;;3.05;0.73;;;18.40;76.90;;;;;;4985839;28;20050;-77
2023/10/10 12:46:55;;;;;;;1.20;0.70;;;18.40;76.00;;;;;;4986114;28;20057;-76
2023/10/10 12:49:36;;;;;;;3.83;0.88;;;18.30;77.40;;;;;;4987352;28;20820;-76
2023/10/10 12:52:11;;;;;;;3.03;0.90;;;18.10;78.30;;;;;;4995294;28;20373;-76
2023/10/10 12:54:41;;;;;;;1.77;1.02;;;18.10;79.10;;;;;;4990413;28;20054;-76
2023/10/10 12:57:13;;;;;;;1.17;0.70;;;17.90;79.10;;;;;;4980227;28;20133;-76
2023/10/10 12:59:46;;;;;;;1.73;0.90;;;17.80;78.60;;;;;;4986468;28;20065;-75
2023/10/10 13:02:15;;;;;;;2.40;1.00;;;17.70;80.20;;;;;;4981969;28;20050;-76
2023/10/10 13:04:46;;;;;;;1.73;0.90;;;17.40;79.70;;;;;;4985035;28;20054;-75
2023/10/10 13:07:16;;;;;;;3.00;1.00;;;17.30;82.30;;;;;;4980307;28;20469;-74
2023/10/10 13:09:46;;;;;;;1.98;1.15;;;17.30;81.90;;;;;;4979900;28;20058;-75
2023/10/10 13:12:26;;;;;;;2.40;1.50;;;17.20;82.20;;;;;;4980530;28;20054;-74
2023/10/10 13:15:05;;;;;;;2.63;1.50;;;17.10;84.30;;;;;;4974815;28;20058;-74
2023/10/10 13:17:49;;;;;;;3.28;1.38;;;17.00;84.70;;;;;;4977162;28;20835;-74
2023/10/10 13:20:21;;;;;;;3.92;2.58;;;16.90;85.90;;;;;;4959409;28;20057;-73
2023/10/10 13:22:50;;;;;;;5.82;2.85;;;16.70;85.80;;;;;;4980988;28;20042;-74
2023/10/10 13:25:19;;;;;;;6.50;2.55;;;16.50;86.90;;;;;;4968102;28;20148;-74
2023/10/10 13:27:46;;;;;;;4.57;2.75;;;16.40;88.80;;;;;;4982882;28;20169;-74
2023/10/10 13:30:13;;;;;;;6.25;3.70;;;16.30;89.70;;;;;;4985309;28;20664;-79
2023/10/10 13:32:41;;;;;;;5.25;2.97;;;16.30;89.20;;;;;;4986345;28;20050;-80
2023/10/10 13:35:09;;;;;;;5.90;3.67;;;16.30;90.60;;;;;;4983244;28;20141;-78
2023/10/10 13:37:41;;;;;;;6.82;3.95;;;16.30;91.50;;;;;;4987451;28;20046;-76
2023/10/10 13:40:09;;;;;;;7.43;4.05;;;16.30;91.60;;;;;;4971480;28;20066;-80
2023/10/10 13:42:40;;;;;;;10.45;4.50;;;16.30;92.00;;;;;;4987489;28;20054;-77
2023/10/10 13:45:11;;;;;;;6.93;4.15;;;16.30;91.90;;;;;;4987179;28;20073;-74
2023/10/10 13:47:40;;;;;;;7.13;3.65;;;16.50;92.20;;;;;;4984391;28;20058;-73
2023/10/10 13:50:28;;;;;;;9.27;4.45;;;16.50;91.60;;;;;;4984595;28;20101;-74
2023/10/10 13:52:55;;;;;;;11.57;4.55;;;16.60;91.90;;;;;;4980935;28;20142;-74
2023/10/10 13:55:23;;;;;;;7.18;4.68;;;16.60;91.80;;;;;;4980807;28;20054;-74
2023/10/10 13:57:50;;;;;;;6.35;4.35;;;16.70;92.00;;;;;;4979886;28;20046;-75
2023/10/10 14:00:29;;;;;;;14.18;4.97;;;16.80;92.10;;;;;;4983117;28;20774;-76
2023/10/10 14:03:03;;;;;;;12.45;4.68;;;17.00;92.20;;;;;;4983959;28;20046;-75
2023/10/10 14:06:00;;;;;;;5.78;3.90;;;17.10;90.40;;;;;;4978935;28;20046;-76
2023/10/10 14:08:30;;;;;;;12.18;4.60;;;17.20;91.10;;;;;;4975649;28;20054;-75
2023/10/10 14:11:00;;;;;;;12.90;3.78;;;17.20;90.20;;;;;;4969128;28;20137;-76
2023/10/10 14:13:28;;;;;;;8.57;3.50;;;17.10;90.10;;;;;;4982712;28;20069;-75
2023/10/10 14:15:57;;;;;;;5.22;3.50;;;17.10;90.00;;;;;;4985027;28;20772;-76
2023/10/10 14:18:28;;;;;;;8.45;3.80;;;17.00;90.40;;;;;;4981945;28;20038;-75
2023/10/10 14:20:56;;;;;;;7.55;3.00;;;16.90;90.70;;;;;;4982385;28;20062;-78
2023/10/10 14:23:25;;;;;;;6.38;3.33;;;16.90;91.10;;;;;;4983572;28;20758;-78
2023/10/10 14:26:02;;;;;;;9.13;3.65;;;16.80;91.30;;;;;;4980032;28;20045;-76
2023/10/10 14:28:29;;;;;;;6.47;2.92;;;16.70;92.20;;;;;;4958653;28;20050;-76
2023/10/10 14:30:57;;;;;;;7.05;3.20;;;16.70;92.70;;;;;;4966455;28;20104;-76
2023/10/10 14:33:25;;;;;;;7.72;2.92;;;16.80;92.90;;;;;;4983620;28;20082;-76
2023/10/10 14:35:53;;;;;;;6.30;2.88;;;16.80;92.40;;;;;;4965444;28;20050;-73
2023/10/10 14:38:19;;;;;;;5.53;2.72;;;16.80;91.30;;;;;;4981999;28;20137;-75
2023/10/10 14:40:46;;;;;;;6.60;3.42;;;16.80;91.90;;;;;;4977248;28;20042;-73
2023/10/10 14:43:13;;;;;;;5.07;2.80;;;16.80;90.90;;;;;;4981273;28;20046;-72
2023/10/10 14:45:44;;;;;;;7.55;3.33;;;16.70;91.80;;;;;;4977209;28;20085;-72
2023/10/10 14:48:14;;;;;;;5.97;2.75;;;16.50;91.70;;;;;;4983670;28;20086;-76
2023/10/10 14:50:42;;;;;;;3.55;2.75;;;16.40;91.80;;;;;;4982901;28;20046;-75
2023/10/10 14:53:09;;;;;;;7.95;3.47;;;16.30;92.80;;;;;;4978624;28;20059;-77
2023/10/10 14:55:44;;;;;;;10.38;3.42;;;16.20;93.30;;;;;;4984547;28;20785;-77
2023/10/10 14:58:13;;;;;;;5.00;3.13;;;16.10;93.60;;;;;;4966823;28;20050;-77
2023/10/10 15:00:41;;;;;;;9.10;3.55;;;16.00;94.30;;;;;;4983954;28;20104;-77
2023/10/10 15:03:15;;;;;;;5.40;3.40;;;16.00;94.10;;;;;;4979309;28;20054;-76
2023/10/10 15:05:47;;;;;;;5.63;3.28;;;15.90;95.20;;;;;;4968207;28;20807;-75
2023/10/10 15:08:15;;;;;;;8.05;3.65;;;15.90;95.60;;;;;;4966117;28;20077;-76
2023/10/10 15:10:42;;;;;;;7.47;3.30;;;15.90;95.70;;;;;;4986049;28;20108;-75
2023/10/10 15:13:10;;;;;;;6.40;3.33;;;15.80;95.20;;;;;;4984058;28;20058;-75
2023/10/10 15:15:37;;;;;;;10.73;3.85;;;15.80;96.10;;;;;;4984487;28;20888;-75
2023/10/10 15:18:04;;;;;;;10.35;3.67;;;15.70;96.30;;;;;;4983863;28;20517;-74
2023/10/10 15:20:32;;;;;;;8.65;4.03;;;15.60;97.20;;;;;;4967143;28;20050;-75
2023/10/10 15:22:59;;;;;;;7.95;3.38;;;15.60;97.90;;;;;;4967143;28;20054;-76
2023/10/10 15:25:26;;;;;;;8.90;3.92;;;15.60;98.10;;;;;;4984134;28;20133;-77
2023/10/10 15:27:54;;;;;;;9.00;3.40;;;15.60;98.60;;;;;;4963706;28;20484;-76
2023/10/10 15:30:21;;;;;;;4.90;3.47;;;15.50;98.60;;;;;;4980211;28;20903;-75
2023/10/10 15:32:52;;;;;;;8.88;3.17;;;15.50;99.10;;;;;;4983925;28;20050;-75
2023/10/10 15:35:19;;;;;;;5.43;3.30;;;15.50;99.30;;;;;;4984269;28;20062;-76